< < Back
Terminal Aerodrome Forecast


Current Version              Previous Versions:   1  2  3  4  5  6  7  8  9  

Terminal Aerodrome Forecast

424
FTUS42 KMLB 221100
TAFMCO
TAF
KMCO 221127Z 2212/2312 12005KT P6SM FEW005 SCT080 BKN250
     FM221600 17009KT P6SM VCSH SCT020 BKN050 BKN100
     FM230600 17005KT 6SM BR SCT004 OVC010=

Latest METAR

663
SAUS70 KWBC 230400 RRB
MTRMCO
METAR KMCO 230353Z 00000KT 7SM FEW090 19/19 A2997 RMK AO2 SLP146
T01940194


USA.gov is the U.S. government's official web portal to all federal, state and local government web resources and services.